createdAt,value
2022-12-23T00:01:47.149Z,4.29
2022-12-23T00:04:15.495Z,4.29
2022-12-23T00:06:43.842Z,4.32
2022-12-23T00:09:12.263Z,4.39
2022-12-23T00:12:00.649Z,4.48
2022-12-23T00:14:49.065Z,4.55
2022-12-23T00:17:22.621Z,4.57
2022-12-23T00:19:52.109Z,4.62
2022-12-23T00:22:19.288Z,4.60
2022-12-23T00:24:47.747Z,4.68
2022-12-23T00:27:16.234Z,4.75
2022-12-23T00:29:44.637Z,4.76
2022-12-23T00:32:13.028Z,4.71
2022-12-23T00:34:41.455Z,4.65
2022-12-23T00:37:09.914Z,4.62
2022-12-23T00:40:02.609Z,4.67
2022-12-23T00:42:53.920Z,4.67
2022-12-23T00:45:24.088Z,4.67
2022-12-23T00:48:12.576Z,4.65
2022-12-23T00:50:42.408Z,4.65
2022-12-23T00:53:12.269Z,4.65
2022-12-23T00:55:42.299Z,4.62
2022-12-23T00:58:12.047Z,4.60
2022-12-23T01:00:58.710Z,4.62
2022-12-23T01:03:46.599Z,4.62
2022-12-23T01:06:14.304Z,4.65
2022-12-23T01:08:44.432Z,4.71
2022-12-23T01:11:14.184Z,4.69
2022-12-23T01:13:43.988Z,4.68
2022-12-23T01:16:17.716Z,4.82
2022-12-23T01:18:47.028Z,4.88
2022-12-23T01:21:14.526Z,4.88
2022-12-23T01:23:44.372Z,4.79
2022-12-23T01:26:14.121Z,4.76
2022-12-23T01:28:43.995Z,4.82
2022-12-23T01:31:13.826Z,4.88
2022-12-23T01:33:43.719Z,4.93
2022-12-23T01:36:13.831Z,4.94
2022-12-23T01:38:43.947Z,4.88
2022-12-23T01:41:49.467Z,4.76
2022-12-23T01:45:10.600Z,4.73
2022-12-23T01:47:50.364Z,4.71
2022-12-23T01:50:32.126Z,4.65
2022-12-23T01:53:19.925Z,4.69
2022-12-23T01:55:57.299Z,4.66
2022-12-23T01:58:34.988Z,4.68
2022-12-23T02:01:25.658Z,4.66
2022-12-23T02:04:00.784Z,4.62
2022-12-23T02:07:02.899Z,4.62
2022-12-23T02:09:39.384Z,4.63
2022-12-23T02:12:47.914Z,4.63
2022-12-23T02:16:16.150Z,4.68
2022-12-23T02:19:08.311Z,4.65
2022-12-23T02:22:12.115Z,4.66
2022-12-23T02:25:12.461Z,4.66
2022-12-23T02:28:24.222Z,4.67
2022-12-23T02:31:13.353Z,4.75
2022-12-23T02:34:21.767Z,4.82
2022-12-23T02:37:09.455Z,4.82
2022-12-23T02:39:50.675Z,4.79
2022-12-23T02:42:58.875Z,4.85
2022-12-23T02:45:52.061Z,4.87
2022-12-23T02:48:36.948Z,4.93
2022-12-23T02:51:12.589Z,4.93
2022-12-23T02:53:54.352Z,4.88
2022-12-23T02:56:30.455Z,4.83
2022-12-23T02:59:15.507Z,4.82
2022-12-23T03:01:47.425Z,4.79
2022-12-23T03:04:17.530Z,4.87
2022-12-23T03:06:54.695Z,4.89
2022-12-23T03:09:58.557Z,4.82
2022-12-23T03:12:58.792Z,4.70
2022-12-23T03:15:51.823Z,4.66
2022-12-23T03:19:03.806Z,4.64
2022-12-23T03:22:37.653Z,4.60
2022-12-23T03:25:27.261Z,4.62
2022-12-23T03:28:15.279Z,4.64
2022-12-23T03:30:53.197Z,4.62
2022-12-23T03:33:33.979Z,4.62
2022-12-23T03:36:24.574Z,4.62
2022-12-23T03:38:57.228Z,4.64
2022-12-23T03:41:36.216Z,4.73
2022-12-23T03:44:57.241Z,4.79
2022-12-23T03:47:44.605Z,4.72
2022-12-23T03:50:19.091Z,4.70
2022-12-23T03:53:12.619Z,4.70
2022-12-23T03:55:58.935Z,4.71
2022-12-23T03:58:58.030Z,4.70
2022-12-23T04:01:43.026Z,4.72
2022-12-23T04:04:30.197Z,4.80
2022-12-23T04:07:10.926Z,4.83
2022-12-23T04:09:41.493Z,4.90
2022-12-23T04:12:19.180Z,4.87
2022-12-23T04:14:50.006Z,4.81
2022-12-23T04:17:20.063Z,4.79
2022-12-23T04:19:47.851Z,4.81
2022-12-23T04:22:16.602Z,4.87
2022-12-23T04:24:44.513Z,4.85
2022-12-23T04:27:15.824Z,4.89
2022-12-23T04:29:46.700Z,4.95
2022-12-23T04:32:16.564Z,4.97
2022-12-23T04:34:46.357Z,4.95
2022-12-23T04:37:16.164Z,4.91
2022-12-23T04:39:45.984Z,4.90
2022-12-23T04:42:16.021Z,4.93
2022-12-23T04:44:45.843Z,4.93
2022-12-23T04:47:15.696Z,4.94
2022-12-23T04:49:45.432Z,4.95
2022-12-23T04:52:15.298Z,4.94
2022-12-23T04:54:46.528Z,4.97
2022-12-23T04:57:16.999Z,4.93
2022-12-23T04:59:46.902Z,4.93
2022-12-23T05:02:16.806Z,4.92
2022-12-23T05:04:46.664Z,4.93
2022-12-23T05:07:16.634Z,5.02
2022-12-23T05:09:46.416Z,5.01
2022-12-23T05:12:16.215Z,4.97
2022-12-23T05:14:46.356Z,5.01
2022-12-23T05:17:16.140Z,5.12
2022-12-23T05:19:45.873Z,5.11
2022-12-23T05:22:15.712Z,5.10
2022-12-23T05:24:45.487Z,5.06
2022-12-23T05:27:15.396Z,5.01
2022-12-23T05:29:45.231Z,5.02
2022-12-23T05:32:15.038Z,5.14
2022-12-23T05:34:43.433Z,5.16
2022-12-23T05:37:11.899Z,5.15
2022-12-23T05:39:40.267Z,5.16
2022-12-23T05:42:14.239Z,5.21
2022-12-23T05:44:43.931Z,5.22
2022-12-23T05:47:13.742Z,5.26
2022-12-23T05:49:43.476Z,5.37
2022-12-23T05:52:13.229Z,5.34
2022-12-23T05:54:42.967Z,5.27
2022-12-23T05:57:13.045Z,5.28
2022-12-23T05:59:42.841Z,5.27
2022-12-23T06:02:12.892Z,5.27
2022-12-23T06:04:42.794Z,5.27
2022-12-23T06:07:12.538Z,5.28
2022-12-23T06:09:42.342Z,5.30
2022-12-23T06:12:17.222Z,5.30
2022-12-23T06:14:47.513Z,5.33
2022-12-23T06:17:17.355Z,5.40
2022-12-23T06:19:47.510Z,5.37
2022-12-23T06:22:17.870Z,5.35
2022-12-23T06:24:48.304Z,5.40
2022-12-23T06:27:19.202Z,5.37
2022-12-23T06:29:48.968Z,5.39
2022-12-23T06:32:19.099Z,5.37
2022-12-23T06:34:53.167Z,5.42
2022-12-23T06:37:23.247Z,5.48
2022-12-23T06:39:53.017Z,5.49
2022-12-23T06:42:21.640Z,5.51
2022-12-23T06:44:49.888Z,5.51
2022-12-23T06:47:18.282Z,5.55
2022-12-23T06:49:46.709Z,5.76
2022-12-23T06:52:15.010Z,5.96
2022-12-23T06:54:43.516Z,5.97
2022-12-23T06:57:11.912Z,5.94
2022-12-23T06:59:40.484Z,5.95
2022-12-23T07:02:12.237Z,5.99
2022-12-23T07:04:40.106Z,6.04
2022-12-23T07:07:08.623Z,6.07
2022-12-23T07:09:36.987Z,6.04
2022-12-23T07:12:09.190Z,6.02
2022-12-23T07:14:39.553Z,6.01
2022-12-23T07:17:09.367Z,6.03
2022-12-23T07:19:40.371Z,6.03
2022-12-23T07:22:12.927Z,6.04
2022-12-23T07:24:42.720Z,6.07
2022-12-23T07:27:12.595Z,6.08
2022-12-23T07:29:42.531Z,6.09
2022-12-23T07:32:12.322Z,6.10
2022-12-23T07:34:42.250Z,6.09
2022-12-23T07:37:12.290Z,6.08
2022-12-23T07:39:41.998Z,6.10
2022-12-23T07:42:43.640Z,6.13
2022-12-23T07:45:07.866Z,6.09
2022-12-23T07:47:37.643Z,6.03
2022-12-23T07:50:08.656Z,6.08
2022-12-23T07:52:38.496Z,6.09
2022-12-23T07:55:09.017Z,6.08
2022-12-23T07:57:39.956Z,6.09
2022-12-23T08:00:14.298Z,6.08
2022-12-23T08:02:44.456Z,6.07
2022-12-23T08:05:16.356Z,6.03
2022-12-23T08:07:46.235Z,5.99
2022-12-23T08:10:16.262Z,5.98
2022-12-23T08:12:46.543Z,5.96
2022-12-23T08:15:16.390Z,5.93
2022-12-23T08:17:46.193Z,5.89
2022-12-23T08:20:16.087Z,5.87
2022-12-23T08:22:45.817Z,5.87
2022-12-23T08:25:14.194Z,5.86
2022-12-23T08:27:42.698Z,5.91
2022-12-23T08:30:11.965Z,5.94
2022-12-23T08:32:39.594Z,5.97
2022-12-23T08:35:08.621Z,5.89
2022-12-23T08:37:36.404Z,5.90
2022-12-23T08:40:05.876Z,5.97
2022-12-23T08:42:33.173Z,5.95
2022-12-23T08:45:01.667Z,5.93
2022-12-23T08:47:29.918Z,5.93
2022-12-23T08:49:58.523Z,5.96
2022-12-23T08:52:26.803Z,5.99
2022-12-23T08:54:55.289Z,6.01
2022-12-23T08:57:23.680Z,6.05
2022-12-23T08:59:52.058Z,6.01
2022-12-23T09:02:20.677Z,6.04
2022-12-23T09:04:48.957Z,5.98
2022-12-23T09:07:17.275Z,6.03
2022-12-23T09:09:45.751Z,5.97
2022-12-23T09:12:17.731Z,6.03
2022-12-23T09:14:48.432Z,6.12
2022-12-23T09:17:18.306Z,6.13
2022-12-23T09:19:52.746Z,6.11
2022-12-23T09:22:23.159Z,6.08
2022-12-23T09:24:53.321Z,6.14
2022-12-23T09:27:23.075Z,6.12
2022-12-23T09:29:52.908Z,6.14
2022-12-23T09:32:22.697Z,6.16
2022-12-23T09:34:52.502Z,6.20
2022-12-23T09:37:22.259Z,6.24
2022-12-23T09:39:52.125Z,6.26
2022-12-23T09:42:55.623Z,6.27
2022-12-23T09:45:48.855Z,6.15
2022-12-23T09:48:27.663Z,6.14
2022-12-23T09:50:57.466Z,6.21
2022-12-23T09:53:43.348Z,6.15
2022-12-23T09:56:52.892Z,6.21
2022-12-23T09:59:25.273Z,6.21
2022-12-23T10:02:25.037Z,6.25
2022-12-23T10:05:35.472Z,6.24
2022-12-23T10:08:17.689Z,6.14
2022-12-23T10:10:54.206Z,6.16
2022-12-23T10:13:49.154Z,6.13
2022-12-23T10:16:45.749Z,6.16
2022-12-23T10:19:43.067Z,6.25
2022-12-23T10:22:41.236Z,6.20
2022-12-23T10:25:39.353Z,6.10
2022-12-23T10:28:11.220Z,6.12
2022-12-23T10:31:11.107Z,6.11
2022-12-23T10:33:42.812Z,6.12
2022-12-23T10:36:51.527Z,6.12
2022-12-23T10:39:50.123Z,6.18
2022-12-23T10:42:40.585Z,6.25
2022-12-23T10:45:47.121Z,6.32
2022-12-23T10:49:00.315Z,6.39
2022-12-23T10:52:02.177Z,6.58
2022-12-23T10:54:37.400Z,6.65
2022-12-23T10:57:08.896Z,6.65
2022-12-23T10:59:38.644Z,6.56
2022-12-23T11:02:11.548Z,6.55
2022-12-23T11:04:44.321Z,6.47
2022-12-23T11:07:43.407Z,6.46
2022-12-23T11:10:25.723Z,6.45
2022-12-23T11:12:55.693Z,6.38
2022-12-23T11:15:39.793Z,6.40
2022-12-23T11:18:19.750Z,6.50
2022-12-23T11:21:06.339Z,6.51
2022-12-23T11:23:36.727Z,6.63
2022-12-23T11:26:13.618Z,6.67
2022-12-23T11:28:57.765Z,6.64
2022-12-23T11:31:35.478Z,6.51
2022-12-23T11:34:19.491Z,6.50
2022-12-23T11:37:03.629Z,6.54
2022-12-23T11:39:37.753Z,6.50
2022-12-23T11:42:24.617Z,6.63
2022-12-23T11:44:59.307Z,6.62
2022-12-23T11:47:39.340Z,6.57
2022-12-23T11:50:37.858Z,6.49
2022-12-23T11:53:25.246Z,6.52
2022-12-23T11:55:57.836Z,6.49
2022-12-23T11:58:31.284Z,6.53
2022-12-23T12:01:08.794Z,6.48
2022-12-23T12:03:53.943Z,6.48
2022-12-23T12:06:25.467Z,6.40
2022-12-23T12:09:01.376Z,6.32
2022-12-23T12:11:44.378Z,6.25
2022-12-23T12:14:52.615Z,6.23
2022-12-23T12:17:38.051Z,6.22
2022-12-23T12:20:38.085Z,6.19
2022-12-23T12:23:41.397Z,6.15
2022-12-23T12:26:30.111Z,6.24
2022-12-23T12:29:15.725Z,6.27
2022-12-23T12:31:59.930Z,6.16
2022-12-23T12:34:44.058Z,6.23
2022-12-23T12:37:49.064Z,6.32
2022-12-23T12:40:42.668Z,6.27
2022-12-23T12:43:40.226Z,6.30
2022-12-23T12:46:33.698Z,6.40
2022-12-23T12:49:36.241Z,6.39
2022-12-23T12:52:21.903Z,6.38
2022-12-23T12:55:30.074Z,6.36
2022-12-23T12:58:04.899Z,6.34
2022-12-23T13:01:00.861Z,6.38
2022-12-23T13:04:16.612Z,6.48
2022-12-23T13:07:15.475Z,6.43
2022-12-23T13:10:29.816Z,6.40
2022-12-23T13:13:28.447Z,6.41
2022-12-23T13:16:30.317Z,6.43
2022-12-23T13:19:30.452Z,6.42
2022-12-23T13:22:11.798Z,6.32
2022-12-23T13:25:18.004Z,6.29
2022-12-23T13:28:07.263Z,6.16
2022-12-23T13:30:51.924Z,6.14
2022-12-23T13:34:16.514Z,6.14
2022-12-23T13:37:18.526Z,6.05
2022-12-23T13:40:19.256Z,6.07
2022-12-23T13:42:57.201Z,6.09
2022-12-23T13:45:36.542Z,6.07
2022-12-23T13:48:45.247Z,6.11
2022-12-23T13:51:37.348Z,6.15
2022-12-23T13:54:45.846Z,6.20
2022-12-23T13:57:24.500Z,6.10
2022-12-23T14:00:27.211Z,6.05
2022-12-23T14:03:02.884Z,6.22
2022-12-23T14:05:41.557Z,6.30
2022-12-23T14:08:22.728Z,6.09
2022-12-23T14:11:10.249Z,6.02
2022-12-23T14:13:43.460Z,5.94
2022-12-23T14:16:32.191Z,6.04
2022-12-23T14:19:42.691Z,6.06
2022-12-23T14:22:27.818Z,6.10
2022-12-23T14:25:19.241Z,6.16
2022-12-23T14:28:42.217Z,6.13
2022-12-23T14:31:30.423Z,6.13
2022-12-23T14:34:31.147Z,6.22
2022-12-23T14:37:27.221Z,6.33
2022-12-23T14:39:59.324Z,6.24
2022-12-23T14:42:41.924Z,6.05
2022-12-23T14:45:42.612Z,5.95
2022-12-23T14:48:34.540Z,5.91
2022-12-23T14:51:36.790Z,5.88
2022-12-23T14:54:06.710Z,5.85
2022-12-23T14:56:39.524Z,5.83
2022-12-23T14:59:33.662Z,5.95
2022-12-23T15:02:14.158Z,5.95
2022-12-23T15:04:54.631Z,5.79
2022-12-23T15:07:40.993Z,5.64
2022-12-23T15:10:13.507Z,5.65
2022-12-23T15:12:49.372Z,5.72
2022-12-23T15:15:27.209Z,5.67
2022-12-23T15:18:14.140Z,5.56
2022-12-23T15:20:43.085Z,5.53
2022-12-23T15:23:17.582Z,5.40
2022-12-23T15:25:49.371Z,5.33
2022-12-23T15:28:24.237Z,5.30
2022-12-23T15:30:57.032Z,5.30
2022-12-23T15:36:37.532Z,5.30
2022-12-23T15:39:21.097Z,5.30
2022-12-23T15:41:49.020Z,5.39
2022-12-23T15:44:26.829Z,5.43
2022-12-23T15:46:56.586Z,5.32
2022-12-23T15:49:25.299Z,5.20
2022-12-23T15:52:13.535Z,5.16
2022-12-23T15:55:14.936Z,5.13
2022-12-23T15:57:50.648Z,5.08
2022-12-23T16:00:36.312Z,5.05
2022-12-23T16:03:25.173Z,5.01
2022-12-23T16:05:55.365Z,5.00
2022-12-23T16:08:30.214Z,4.99
2022-12-23T16:11:22.510Z,4.96
2022-12-23T16:13:58.797Z,4.97
2022-12-23T16:16:42.265Z,4.99
2022-12-23T16:19:44.660Z,4.99
2022-12-23T16:22:20.489Z,5.00
2022-12-23T16:24:56.320Z,5.01
2022-12-23T16:27:44.886Z,4.98
2022-12-23T16:30:16.254Z,4.96
2022-12-23T16:32:55.351Z,4.95
2022-12-23T16:35:43.151Z,4.91
2022-12-23T16:38:26.509Z,4.87
2022-12-23T16:40:57.525Z,4.84
2022-12-23T16:43:27.330Z,4.82
2022-12-23T16:45:58.058Z,4.81
2022-12-23T16:48:33.850Z,4.81
2022-12-23T16:51:09.092Z,4.80
2022-12-23T16:53:38.871Z,4.80
2022-12-23T16:56:14.455Z,4.81
2022-12-23T16:58:45.379Z,4.83
2022-12-23T17:01:29.690Z,4.83
2022-12-23T17:03:59.705Z,4.85
2022-12-23T17:06:29.673Z,4.85
2022-12-23T17:08:59.498Z,4.84
2022-12-23T17:11:41.414Z,4.85
2022-12-23T17:14:22.622Z,4.84
2022-12-23T17:16:51.149Z,4.84
2022-12-23T17:19:27.235Z,4.84
2022-12-23T17:22:04.422Z,4.84
2022-12-23T17:24:34.180Z,4.83
2022-12-23T17:27:17.159Z,4.84
2022-12-23T17:29:47.411Z,4.84
2022-12-23T17:32:19.211Z,4.85
2022-12-23T17:34:49.115Z,4.84
2022-12-23T17:37:22.493Z,4.84
2022-12-23T17:39:52.296Z,4.85
2022-12-23T17:42:26.079Z,4.85
2022-12-23T17:44:53.767Z,4.88
2022-12-23T17:47:22.833Z,4.87
2022-12-23T17:49:50.582Z,4.86
2022-12-23T17:52:22.821Z,4.85
2022-12-23T17:54:52.736Z,4.84
2022-12-23T17:57:26.410Z,4.85
2022-12-23T17:59:56.861Z,4.86
2022-12-23T18:02:32.777Z,4.89
2022-12-23T18:05:23.484Z,4.89
2022-12-23T18:07:56.130Z,4.90
2022-12-23T18:10:32.910Z,4.91
2022-12-23T18:13:07.808Z,4.92
2022-12-23T18:15:41.684Z,4.89
2022-12-23T18:18:30.157Z,4.91
2022-12-23T18:21:03.215Z,4.93
2022-12-23T18:23:35.027Z,4.91
2022-12-23T18:26:04.896Z,4.92
2022-12-23T18:28:34.692Z,4.90
2022-12-23T18:31:03.384Z,4.89
2022-12-23T18:33:31.704Z,4.87
2022-12-23T18:35:59.978Z,4.90
2022-12-23T18:38:28.405Z,4.88
2022-12-23T18:40:58.045Z,4.87
2022-12-23T18:43:26.542Z,4.85
2022-12-23T18:45:54.371Z,4.84
2022-12-23T18:48:22.124Z,4.83
2022-12-23T18:50:50.483Z,4.83
2022-12-23T18:53:24.972Z,4.82
2022-12-23T18:55:55.503Z,4.82
2022-12-23T18:58:25.616Z,4.84
2022-12-23T19:00:56.891Z,4.87
2022-12-23T19:03:31.029Z,4.88
2022-12-23T19:06:06.765Z,4.86
2022-12-23T19:08:37.959Z,4.86
2022-12-23T19:11:20.854Z,4.87
2022-12-23T19:13:50.579Z,4.85
2022-12-23T19:16:20.997Z,4.82
2022-12-23T19:18:50.714Z,4.82
2022-12-23T19:21:19.474Z,4.80
2022-12-23T19:23:47.006Z,4.80
2022-12-23T19:26:15.945Z,4.81
2022-12-23T19:28:43.910Z,4.77
2022-12-23T19:31:15.573Z,4.76
2022-12-23T19:33:47.619Z,4.76
2022-12-23T19:36:25.032Z,4.74
2022-12-23T19:38:53.005Z,4.72
2022-12-23T19:41:22.805Z,4.72
2022-12-23T19:43:52.827Z,4.72
2022-12-23T19:46:22.689Z,4.69
2022-12-23T19:48:53.349Z,4.69
2022-12-23T19:51:23.480Z,4.69
2022-12-23T19:53:53.300Z,4.68
2022-12-23T19:56:23.149Z,4.68
2022-12-23T19:58:53.430Z,4.67
2022-12-23T20:01:26.253Z,4.65
2022-12-23T20:03:56.820Z,4.64
2022-12-23T20:06:33.108Z,4.64
2022-12-23T20:09:04.086Z,4.64
2022-12-23T20:11:38.183Z,4.63
2022-12-23T20:14:09.430Z,4.61
2022-12-23T20:16:40.929Z,4.61
2022-12-23T20:19:11.405Z,4.60
2022-12-23T20:21:40.256Z,4.59
2022-12-23T20:24:10.056Z,4.59
2022-12-23T20:26:40.429Z,4.56
2022-12-23T20:29:10.670Z,4.56
2022-12-23T20:31:40.590Z,4.56
2022-12-23T20:34:16.848Z,4.56
2022-12-23T20:36:44.804Z,4.56
2022-12-23T20:39:14.040Z,4.55
2022-12-23T20:41:42.540Z,4.56
2022-12-23T20:47:00.921Z,4.64
2022-12-23T20:49:31.084Z,4.70
2022-12-23T20:52:01.543Z,4.73
2022-12-23T20:54:33.746Z,4.68
2022-12-23T20:57:03.888Z,4.69
2022-12-23T20:59:33.885Z,4.74
2022-12-23T21:02:03.791Z,4.78
2022-12-23T21:04:33.596Z,4.81
2022-12-23T21:07:03.496Z,4.86
2022-12-23T21:09:33.726Z,4.87
2022-12-23T21:12:04.513Z,4.85
2022-12-23T21:14:34.513Z,4.79
2022-12-23T21:17:04.350Z,4.73
2022-12-23T21:19:34.893Z,4.73
2022-12-23T21:22:04.712Z,4.70
2022-12-23T21:24:34.542Z,4.69
2022-12-23T21:27:04.376Z,4.72
2022-12-23T21:29:34.240Z,4.74
2022-12-23T21:32:04.262Z,4.70
2022-12-23T21:34:34.180Z,4.75
2022-12-23T21:37:04.024Z,4.73
2022-12-23T21:39:33.844Z,4.72
2022-12-23T21:42:04.249Z,4.80
2022-12-23T21:44:34.210Z,4.77
2022-12-23T21:47:04.118Z,4.78
2022-12-23T21:49:32.413Z,4.80
2022-12-23T21:52:01.886Z,4.79
2022-12-23T21:54:29.020Z,4.81
2022-12-23T21:56:57.477Z,4.79
2022-12-23T21:59:31.110Z,4.77
2022-12-23T22:02:04.814Z,4.74
2022-12-23T22:04:34.753Z,4.74
2022-12-23T22:07:04.488Z,4.76
2022-12-23T22:09:34.380Z,4.76
2022-12-23T22:12:06.227Z,4.73
2022-12-23T22:14:36.279Z,4.71
2022-12-23T22:17:06.092Z,4.70
2022-12-23T22:19:35.830Z,4.67
2022-12-23T22:22:05.658Z,4.66
2022-12-23T22:24:35.415Z,4.69
2022-12-23T22:27:05.147Z,4.69
2022-12-23T22:29:35.012Z,4.67
2022-12-23T22:32:05.125Z,4.66
2022-12-23T22:34:35.091Z,4.68
2022-12-23T22:37:04.912Z,4.68
2022-12-23T22:39:34.822Z,4.64
2022-12-23T22:42:07.282Z,4.63
2022-12-23T22:44:37.337Z,4.64
2022-12-23T22:47:07.258Z,4.67
2022-12-23T22:49:37.271Z,4.63
2022-12-23T22:52:07.225Z,4.62
2022-12-23T22:54:37.728Z,4.59
2022-12-23T22:57:07.078Z,4.61
2022-12-23T22:59:38.327Z,4.62
2022-12-23T23:02:07.805Z,4.61
2022-12-23T23:04:37.680Z,4.62
2022-12-23T23:07:08.214Z,4.60
2022-12-23T23:09:37.811Z,4.59
2022-12-23T23:12:10.134Z,4.61
2022-12-23T23:14:53.359Z,4.62
2022-12-23T23:17:29.037Z,4.64
2022-12-23T23:19:58.478Z,4.68
2022-12-23T23:22:27.266Z,4.69
2022-12-23T23:24:55.620Z,4.69
2022-12-23T23:27:23.752Z,4.70
2022-12-23T23:29:52.508Z,4.72
2022-12-23T23:32:20.654Z,4.69
2022-12-23T23:34:49.083Z,4.74
2022-12-23T23:37:17.452Z,4.68
2022-12-23T23:39:45.832Z,4.64
2022-12-23T23:42:19.312Z,4.61
2022-12-23T23:44:49.064Z,4.59
2022-12-23T23:47:18.858Z,4.59
2022-12-23T23:49:48.704Z,4.61
2022-12-23T23:52:18.495Z,4.61
2022-12-23T23:54:48.352Z,4.59
2022-12-23T23:57:18.224Z,4.60
2022-12-23T23:59:48.525Z,4.64
